createdAt,value
2018-03-01T00:07:19.296Z,3.15
2018-03-01T00:17:16.870Z,3.15
2018-03-01T00:27:13.813Z,3.15
2018-03-01T00:37:10.267Z,3.14
2018-03-01T00:47:09.377Z,3.14
2018-03-01T00:57:02.305Z,3.14
2018-03-01T01:06:59.859Z,3.14
2018-03-01T01:16:57.288Z,3.14
2018-03-01T01:26:55.552Z,3.13
2018-03-01T01:36:54.532Z,3.13
2018-03-01T01:46:51.666Z,3.13
2018-03-01T01:56:50.981Z,3.13
2018-03-01T02:06:47.661Z,3.13
2018-03-01T02:16:44.847Z,3.13
2018-03-01T02:26:42.580Z,3.12
2018-03-01T02:36:40.720Z,3.12
2018-03-01T02:46:39.855Z,3.11
2018-03-01T02:56:37.386Z,3.11
2018-03-01T03:06:36.681Z,3.11
2018-03-01T03:16:34.618Z,3.11
2018-03-01T03:26:32.828Z,3.11
2018-03-01T03:36:31.321Z,3.11
2018-03-01T03:46:30.121Z,3.10
2018-03-01T03:56:28.083Z,3.10
2018-03-01T04:06:25.804Z,3.10
2018-03-01T04:16:24.277Z,3.10
2018-03-01T04:26:21.074Z,3.10
2018-03-01T04:36:20.388Z,3.10
2018-03-01T04:46:08.063Z,3.10
2018-03-01T04:56:05.720Z,3.10
2018-03-01T05:06:03.925Z,3.10
2018-03-01T05:16:02.773Z,3.09
2018-03-01T05:25:58.899Z,3.10
2018-03-01T05:35:55.647Z,3.10
2018-03-01T05:45:52.837Z,3.10
2018-03-01T05:55:48.297Z,3.11
2018-03-01T06:05:46.356Z,3.13
2018-03-01T06:15:44.733Z,3.14
2018-03-01T06:25:43.354Z,3.16
2018-03-01T06:35:40.894Z,3.18
2018-03-01T06:45:37.690Z,3.22
2018-03-01T06:55:34.250Z,3.25
2018-03-01T07:05:29.862Z,3.26
2018-03-01T07:15:27.037Z,3.28
2018-03-01T07:25:27.635Z,3.30
2018-03-01T07:35:14.349Z,3.26
2018-03-01T07:45:11.897Z,3.28
2018-03-01T07:55:08.892Z,3.28
2018-03-01T08:05:07.828Z,3.29
2018-03-01T08:15:05.141Z,3.29
2018-03-01T08:25:02.474Z,3.30
2018-03-01T08:34:42.949Z,3.30
2018-03-01T08:44:24.682Z,3.31
2018-03-01T08:53:54.016Z,3.33
2018-03-01T09:03:36.706Z,3.34
2018-03-01T09:13:04.637Z,3.34
2018-03-01T09:22:41.592Z,3.33
2018-03-01T09:32:18.519Z,3.34
2018-03-01T09:41:56.104Z,3.34
2018-03-01T09:51:35.591Z,3.34
2018-03-01T10:01:08.522Z,3.36
2018-03-01T10:10:38.112Z,3.37
2018-03-01T10:20:18.838Z,3.36
2018-03-01T10:29:45.976Z,3.37
2018-03-01T10:39:22.565Z,3.36
2018-03-01T10:48:57.251Z,3.34
2018-03-01T10:58:31.430Z,3.36
2018-03-01T11:08:09.932Z,3.36
2018-03-01T11:17:44.813Z,3.39
2018-03-01T11:27:19.487Z,3.40
2018-03-01T11:36:46.917Z,3.41
2018-03-01T11:46:22.728Z,3.41
2018-03-01T11:56:03.307Z,3.42
2018-03-01T12:05:32.787Z,3.36
2018-03-01T12:14:59.351Z,3.40
2018-03-01T12:24:36.622Z,3.38
2018-03-01T12:34:12.948Z,3.38
2018-03-01T12:43:48.540Z,3.36
2018-03-01T12:53:24.257Z,3.36
2018-03-01T13:03:04.639Z,3.36
2018-03-01T13:12:35.924Z,3.34
2018-03-01T13:22:03.902Z,3.38
2018-03-01T13:31:41.275Z,3.36
2018-03-01T13:41:17.206Z,3.37
2018-03-01T13:50:55.148Z,3.35
2018-03-01T14:00:29.137Z,3.33
2018-03-01T14:10:05.106Z,3.35
2018-03-01T14:19:39.835Z,3.34
2018-03-01T14:29:16.807Z,3.34
2018-03-01T14:38:53.243Z,3.36
2018-03-01T14:48:29.639Z,3.34
2018-03-01T14:58:04.792Z,3.33
2018-03-01T15:07:40.156Z,3.34
2018-03-01T15:17:16.117Z,3.34
2018-03-01T15:26:53.097Z,3.34
2018-03-01T15:36:26.667Z,3.34
2018-03-01T15:46:06.641Z,3.34
2018-03-01T15:55:33.871Z,3.34
2018-03-01T16:05:09.098Z,3.37
2018-03-01T16:14:44.872Z,3.34
2018-03-01T16:24:24.649Z,3.34
2018-03-01T16:33:52.033Z,3.33
2018-03-01T16:43:32.003Z,3.32
2018-03-01T16:53:04.392Z,3.31
2018-03-01T17:02:51.396Z,3.31
2018-03-01T17:12:47.153Z,3.30
2018-03-01T17:22:40.811Z,3.30
2018-03-01T17:32:36.212Z,3.30
2018-03-01T17:42:34.587Z,3.29
2018-03-01T17:52:27.454Z,3.29
2018-03-01T18:02:24.258Z,3.29
2018-03-01T18:12:17.161Z,3.28
2018-03-01T18:22:06.417Z,3.28
2018-03-01T18:32:01.326Z,3.28
2018-03-01T18:41:56.312Z,3.28
2018-03-01T18:51:52.551Z,3.28
2018-03-01T19:01:47.791Z,3.28
2018-03-01T19:11:44.624Z,3.27
2018-03-01T19:21:41.549Z,3.27
2018-03-01T19:31:32.477Z,3.27
2018-03-01T19:41:26.158Z,3.27
2018-03-01T19:51:21.114Z,3.26
2018-03-01T20:01:16.961Z,3.27
2018-03-01T20:11:11.991Z,3.26
2018-03-01T20:21:05.084Z,3.26
2018-03-01T20:31:01.035Z,3.26
2018-03-01T20:40:53.750Z,3.26
2018-03-01T20:50:48.884Z,3.26
2018-03-01T21:00:41.325Z,3.25
2018-03-01T21:10:33.839Z,3.25
2018-03-01T21:20:29.503Z,3.25
2018-03-01T21:30:25.394Z,3.25
2018-03-01T21:40:20.357Z,3.25
2018-03-01T21:50:17.846Z,3.25
2018-03-01T22:00:10.607Z,3.25
2018-03-01T22:10:08.238Z,3.25
2018-03-01T22:20:03.918Z,3.25
2018-03-01T22:29:59.171Z,3.25
2018-03-01T22:39:51.786Z,3.24
2018-03-01T22:49:46.315Z,3.24
2018-03-01T22:59:42.277Z,3.24
2018-03-01T23:09:40.752Z,3.24
2018-03-01T23:19:37.384Z,3.24
2018-03-01T23:29:33.547Z,3.24
2018-03-01T23:39:31.388Z,3.23
2018-03-01T23:49:29.822Z,3.23
2018-03-01T23:59:28.724Z,3.23
